Terminal Aerodrome Forecast
Issued by NWS

Current Version | Previous Version | Graphics & Text | Print | Product List | Glossary On
Versions: 1 2 3 4 5 6 7 8 9 10 11 12 13 14 15 16 17 18 19 20 21 22 23 24
000
FTUS41 KPBZ 230917 AAB
TAFMGW
TAF AMD
KMGW 230917Z 2309/2406 04007KT P6SM VCSH OVC030 WS020/11040KT
     FM231200 08015G25KT 3SM -RA OVC012
     FM231700 08014G22KT 3SM -RA BR OVC008
     FM232300 07007KT 4SM -RA OVC008=

USA.gov is the U.S. government's official web portal to all federal, state and local government web resources and services.